sensor_id;sensor_type;location;lat;lon;timestamp;P1;durP1;ratioP1;P2;durP2;ratioP2
1829;SDS011;914;48.118;11.600;2022-07-29T00:02:25;1.20;;;1.10;;
1829;SDS011;914;48.118;11.600;2022-07-29T00:04:51;1.20;;;1.10;;
1829;SDS011;914;48.118;11.600;2022-07-29T00:07:17;1.02;;;1.02;;
1829;SDS011;914;48.118;11.600;2022-07-29T00:09:43;1.20;;;1.10;;
1829;SDS011;914;48.118;11.600;2022-07-29T00:12:09;1.40;;;1.30;;
1829;SDS011;914;48.118;11.600;2022-07-29T00:14:34;2.20;;;1.40;;
1829;SDS011;914;48.118;11.600;2022-07-29T00:17:00;2.67;;;1.67;;
1829;SDS011;914;48.118;11.600;2022-07-29T00:19:26;1.70;;;1.55;;
1829;SDS011;914;48.118;11.600;2022-07-29T00:21:51;1.77;;;1.65;;
1829;SDS011;914;48.118;11.600;2022-07-29T00:24:17;2.95;;;1.80;;
1829;SDS011;914;48.118;11.600;2022-07-29T00:26:43;2.78;;;1.90;;
1829;SDS011;914;48.118;11.600;2022-07-29T00:29:08;2.13;;;1.92;;
1829;SDS011;914;48.118;11.600;2022-07-29T00:31:34;2.65;;;1.80;;
1829;SDS011;914;48.118;11.600;2022-07-29T00:33:59;2.60;;;1.80;;
1829;SDS011;914;48.118;11.600;2022-07-29T00:36:25;3.00;;;1.70;;
1829;SDS011;914;48.118;11.600;2022-07-29T00:38:51;2.17;;;1.50;;
1829;SDS011;914;48.118;11.600;2022-07-29T00:41:17;1.90;;;1.80;;
1829;SDS011;914;48.118;11.600;2022-07-29T00:43:43;3.33;;;1.65;;
1829;SDS011;914;48.118;11.600;2022-07-29T00:46:09;2.17;;;1.25;;
1829;SDS011;914;48.118;11.600;2022-07-29T00:48:35;1.63;;;1.52;;
1829;SDS011;914;48.118;11.600;2022-07-29T00:51:01;1.30;;;1.30;;
1829;SDS011;914;48.118;11.600;2022-07-29T00:53:28;1.40;;;1.30;;
1829;SDS011;914;48.118;11.600;2022-07-29T00:55:55;1.40;;;1.30;;
1829;SDS011;914;48.118;11.600;2022-07-29T00:58:21;1.20;;;1.10;;
1829;SDS011;914;48.118;11.600;2022-07-29T01:00:48;1.10;;;1.10;;
1829;SDS011;914;48.118;11.600;2022-07-29T01:03:14;1.30;;;1.20;;
1829;SDS011;914;48.118;11.600;2022-07-29T01:05:40;1.20;;;1.10;;
1829;SDS011;914;48.118;11.600;2022-07-29T01:08:07;1.20;;;1.20;;
1829;SDS011;914;48.118;11.600;2022-07-29T01:10:36;1.35;;;1.20;;
1829;SDS011;914;48.118;11.600;2022-07-29T01:13:04;1.42;;;1.33;;
1829;SDS011;914;48.118;11.600;2022-07-29T01:15:31;1.13;;;1.13;;
1829;SDS011;914;48.118;11.600;2022-07-29T01:18:04;1.10;;;1.10;;
1829;SDS011;914;48.118;11.600;2022-07-29T01:23:35;0.90;;;0.90;;
1829;SDS011;914;48.118;11.600;2022-07-29T01:29:11;1.10;;;1.10;;
1829;SDS011;914;48.118;11.600;2022-07-29T01:34:27;1.08;;;1.08;;
1829;SDS011;914;48.118;11.600;2022-07-29T01:37:03;1.23;;;1.10;;
1829;SDS011;914;48.118;11.600;2022-07-29T01:39:39;1.23;;;1.10;;
1829;SDS011;914;48.118;11.600;2022-07-29T01:42:20;1.20;;;1.10;;
1829;SDS011;914;48.118;11.600;2022-07-29T01:45:03;1.45;;;1.00;;
1829;SDS011;914;48.118;11.600;2022-07-29T01:47:40;0.95;;;0.90;;
1829;SDS011;914;48.118;11.600;2022-07-29T01:50:11;0.80;;;0.80;;
1829;SDS011;914;48.118;11.600;2022-07-29T01:52:45;1.02;;;1.02;;
1829;SDS011;914;48.118;11.600;2022-07-29T01:55:17;1.35;;;0.93;;
1829;SDS011;914;48.118;11.600;2022-07-29T01:57:47;0.80;;;0.80;;
1829;SDS011;914;48.118;11.600;2022-07-29T02:00:15;0.93;;;0.90;;
1829;SDS011;914;48.118;11.600;2022-07-29T02:02:42;0.70;;;0.70;;
1829;SDS011;914;48.118;11.600;2022-07-29T02:05:10;0.80;;;0.80;;
1829;SDS011;914;48.118;11.600;2022-07-29T02:07:40;1.38;;;1.00;;
1829;SDS011;914;48.118;11.600;2022-07-29T02:10:08;0.70;;;0.70;;
1829;SDS011;914;48.118;11.600;2022-07-29T02:12:37;0.70;;;0.70;;
1829;SDS011;914;48.118;11.600;2022-07-29T02:15:05;1.27;;;0.80;;
1829;SDS011;914;48.118;11.600;2022-07-29T02:17:33;1.00;;;1.00;;
1829;SDS011;914;48.118;11.600;2022-07-29T02:20:06;0.82;;;0.82;;
1829;SDS011;914;48.118;11.600;2022-07-29T02:22:33;1.20;;;1.00;;
1829;SDS011;914;48.118;11.600;2022-07-29T02:25:02;0.90;;;0.90;;
1829;SDS011;914;48.118;11.600;2022-07-29T02:27:30;0.90;;;0.90;;
1829;SDS011;914;48.118;11.600;2022-07-29T02:29:58;1.92;;;1.00;;
1829;SDS011;914;48.118;11.600;2022-07-29T02:32:27;1.02;;;0.95;;
1829;SDS011;914;48.118;11.600;2022-07-29T02:34:54;1.10;;;1.10;;
1829;SDS011;914;48.118;11.600;2022-07-29T02:37:21;0.95;;;0.95;;
1829;SDS011;914;48.118;11.600;2022-07-29T02:39:48;0.90;;;0.90;;
1829;SDS011;914;48.118;11.600;2022-07-29T02:42:17;0.77;;;0.77;;
1829;SDS011;914;48.118;11.600;2022-07-29T02:44:43;0.82;;;0.80;;
1829;SDS011;914;48.118;11.600;2022-07-29T02:49:48;0.98;;;0.98;;
1829;SDS011;914;48.118;11.600;2022-07-29T02:52:31;1.08;;;1.05;;
1829;SDS011;914;48.118;11.600;2022-07-29T02:55:00;1.00;;;1.00;;
1829;SDS011;914;48.118;11.600;2022-07-29T02:59:57;1.02;;;1.02;;
1829;SDS011;914;48.118;11.600;2022-07-29T03:02:25;1.00;;;1.00;;
1829;SDS011;914;48.118;11.600;2022-07-29T03:04:53;0.90;;;0.90;;
1829;SDS011;914;48.118;11.600;2022-07-29T03:07:21;1.10;;;1.10;;
1829;SDS011;914;48.118;11.600;2022-07-29T03:09:48;1.80;;;1.00;;
1829;SDS011;914;48.118;11.600;2022-07-29T03:12:14;3.08;;;1.30;;
1829;SDS011;914;48.118;11.600;2022-07-29T03:14:42;1.13;;;1.02;;
1829;SDS011;914;48.118;11.600;2022-07-29T03:17:09;1.42;;;1.10;;
1829;SDS011;914;48.118;11.600;2022-07-29T03:19:35;1.20;;;1.10;;
1829;SDS011;914;48.118;11.600;2022-07-29T03:22:01;0.95;;;0.95;;
1829;SDS011;914;48.118;11.600;2022-07-29T03:24:28;0.90;;;0.90;;
1829;SDS011;914;48.118;11.600;2022-07-29T03:26:58;0.90;;;0.90;;
1829;SDS011;914;48.118;11.600;2022-07-29T03:29:24;1.27;;;1.10;;
1829;SDS011;914;48.118;11.600;2022-07-29T03:31:51;2.95;;;1.13;;
1829;SDS011;914;48.118;11.600;2022-07-29T03:34:17;1.08;;;1.08;;
1829;SDS011;914;48.118;11.600;2022-07-29T03:36:42;0.88;;;0.88;;
1829;SDS011;914;48.118;11.600;2022-07-29T03:39:08;1.00;;;1.00;;
1829;SDS011;914;48.118;11.600;2022-07-29T03:41:35;1.43;;;1.00;;
1829;SDS011;914;48.118;11.600;2022-07-29T03:44:04;1.27;;;1.17;;
1829;SDS011;914;48.118;11.600;2022-07-29T03:46:31;1.20;;;1.10;;
1829;SDS011;914;48.118;11.600;2022-07-29T03:49:00;1.73;;;1.23;;
1829;SDS011;914;48.118;11.600;2022-07-29T03:51:27;0.98;;;0.98;;
1829;SDS011;914;48.118;11.600;2022-07-29T03:53:53;1.10;;;1.00;;
1829;SDS011;914;48.118;11.600;2022-07-29T03:56:20;1.40;;;1.27;;
1829;SDS011;914;48.118;11.600;2022-07-29T03:58:50;1.13;;;0.90;;
1829;SDS011;914;48.118;11.600;2022-07-29T04:01:18;1.20;;;1.10;;
1829;SDS011;914;48.118;11.600;2022-07-29T04:03:45;2.35;;;1.20;;
1829;SDS011;914;48.118;11.600;2022-07-29T04:06:11;1.30;;;1.20;;
1829;SDS011;914;48.118;11.600;2022-07-29T04:08:37;1.37;;;1.20;;
1829;SDS011;914;48.118;11.600;2022-07-29T04:11:03;1.13;;;1.10;;
1829;SDS011;914;48.118;11.600;2022-07-29T04:13:30;1.20;;;1.20;;
1829;SDS011;914;48.118;11.600;2022-07-29T04:15:56;1.92;;;1.25;;
1829;SDS011;914;48.118;11.600;2022-07-29T04:18:23;2.13;;;1.35;;
1829;SDS011;914;48.118;11.600;2022-07-29T04:20:48;2.50;;;1.30;;
1829;SDS011;914;48.118;11.600;2022-07-29T04:23:14;1.33;;;1.30;;
1829;SDS011;914;48.118;11.600;2022-07-29T04:25:40;1.47;;;1.37;;
1829;SDS011;914;48.118;11.600;2022-07-29T04:28:07;2.53;;;1.40;;
1829;SDS011;914;48.118;11.600;2022-07-29T04:30:34;1.60;;;1.40;;
1829;SDS011;914;48.118;11.600;2022-07-29T04:33:01;2.17;;;1.97;;
1829;SDS011;914;48.118;11.600;2022-07-29T04:35:28;3.07;;;2.50;;
1829;SDS011;914;48.118;11.600;2022-07-29T04:37:55;3.07;;;1.50;;
1829;SDS011;914;48.118;11.600;2022-07-29T04:40:20;1.40;;;1.30;;
1829;SDS011;914;48.118;11.600;2022-07-29T04:42:46;1.45;;;1.35;;
1829;SDS011;914;48.118;11.600;2022-07-29T04:45:12;1.50;;;1.40;;
1829;SDS011;914;48.118;11.600;2022-07-29T04:47:38;1.23;;;1.20;;
1829;SDS011;914;48.118;11.600;2022-07-29T04:50:04;2.92;;;1.60;;
1829;SDS011;914;48.118;11.600;2022-07-29T04:52:32;3.70;;;1.45;;
1829;SDS011;914;48.118;11.600;2022-07-29T04:54:57;1.30;;;1.20;;
1829;SDS011;914;48.118;11.600;2022-07-29T04:57:23;2.30;;;1.10;;
1829;SDS011;914;48.118;11.600;2022-07-29T04:59:49;3.10;;;1.20;;
1829;SDS011;914;48.118;11.600;2022-07-29T05:02:14;1.30;;;1.20;;
1829;SDS011;914;48.118;11.600;2022-07-29T05:04:40;4.45;;;3.45;;
1829;SDS011;914;48.118;11.600;2022-07-29T05:07:06;2.60;;;1.50;;
1829;SDS011;914;48.118;11.600;2022-07-29T05:09:31;1.35;;;1.25;;
1829;SDS011;914;48.118;11.600;2022-07-29T05:11:57;1.42;;;1.33;;
1829;SDS011;914;48.118;11.600;2022-07-29T05:14:23;2.13;;;1.50;;
1829;SDS011;914;48.118;11.600;2022-07-29T05:16:48;1.52;;;1.42;;
1829;SDS011;914;48.118;11.600;2022-07-29T05:19:16;1.50;;;1.40;;
1829;SDS011;914;48.118;11.600;2022-07-29T05:21:42;3.55;;;1.50;;
1829;SDS011;914;48.118;11.600;2022-07-29T05:24:09;1.50;;;1.40;;
1829;SDS011;914;48.118;11.600;2022-07-29T05:26:36;2.55;;;1.40;;
1829;SDS011;914;48.118;11.600;2022-07-29T05:29:02;2.05;;;1.30;;
1829;SDS011;914;48.118;11.600;2022-07-29T05:31:27;4.82;;;1.67;;
1829;SDS011;914;48.118;11.600;2022-07-29T05:33:53;1.48;;;1.35;;
1829;SDS011;914;48.118;11.600;2022-07-29T05:36:19;2.45;;;1.40;;
1829;SDS011;914;48.118;11.600;2022-07-29T05:38:44;1.15;;;1.13;;
1829;SDS011;914;48.118;11.600;2022-07-29T05:41:10;1.85;;;1.30;;
1829;SDS011;914;48.118;11.600;2022-07-29T05:43:36;1.95;;;1.17;;
1829;SDS011;914;48.118;11.600;2022-07-29T05:46:02;1.73;;;1.23;;
1829;SDS011;914;48.118;11.600;2022-07-29T05:48:28;4.25;;;1.65;;
1829;SDS011;914;48.118;11.600;2022-07-29T05:50:54;3.53;;;1.52;;
1829;SDS011;914;48.118;11.600;2022-07-29T05:53:19;2.30;;;1.50;;
1829;SDS011;914;48.118;11.600;2022-07-29T05:55:45;2.72;;;1.50;;
1829;SDS011;914;48.118;11.600;2022-07-29T05:58:11;4.32;;;1.50;;
1829;SDS011;914;48.118;11.600;2022-07-29T06:00:37;3.55;;;1.80;;
1829;SDS011;914;48.118;11.600;2022-07-29T06:03:02;1.35;;;1.33;;
1829;SDS011;914;48.118;11.600;2022-07-29T06:05:28;1.20;;;1.20;;
1829;SDS011;914;48.118;11.600;2022-07-29T06:07:54;1.52;;;1.25;;
1829;SDS011;914;48.118;11.600;2022-07-29T06:10:19;1.45;;;1.35;;
1829;SDS011;914;48.118;11.600;2022-07-29T06:12:45;3.28;;;1.40;;
1829;SDS011;914;48.118;11.600;2022-07-29T06:15:11;2.15;;;1.30;;
1829;SDS011;914;48.118;11.600;2022-07-29T06:17:37;1.45;;;1.35;;
1829;SDS011;914;48.118;11.600;2022-07-29T06:20:03;1.40;;;1.30;;
1829;SDS011;914;48.118;11.600;2022-07-29T06:22:28;1.33;;;1.23;;
1829;SDS011;914;48.118;11.600;2022-07-29T06:24:54;1.73;;;1.63;;
1829;SDS011;914;48.118;11.600;2022-07-29T06:27:20;2.38;;;1.30;;
1829;SDS011;914;48.118;11.600;2022-07-29T06:29:46;1.50;;;1.40;;
1829;SDS011;914;48.118;11.600;2022-07-29T06:32:11;1.63;;;1.52;;
1829;SDS011;914;48.118;11.600;2022-07-29T06:34:37;1.60;;;1.50;;
1829;SDS011;914;48.118;11.600;2022-07-29T06:37:06;3.40;;;1.35;;
1829;SDS011;914;48.118;11.600;2022-07-29T06:39:36;2.50;;;1.58;;
1829;SDS011;914;48.118;11.600;2022-07-29T06:42:03;5.88;;;1.40;;
1829;SDS011;914;48.118;11.600;2022-07-29T06:44:29;1.40;;;1.30;;
1829;SDS011;914;48.118;11.600;2022-07-29T06:46:56;4.63;;;1.30;;
1829;SDS011;914;48.118;11.600;2022-07-29T06:49:21;1.85;;;1.30;;
1829;SDS011;914;48.118;11.600;2022-07-29T06:51:49;1.50;;;1.40;;
1829;SDS011;914;48.118;11.600;2022-07-29T06:54:14;1.73;;;1.40;;
1829;SDS011;914;48.118;11.600;2022-07-29T06:56:40;1.58;;;1.40;;
1829;SDS011;914;48.118;11.600;2022-07-29T06:59:07;1.80;;;1.38;;
1829;SDS011;914;48.118;11.600;2022-07-29T07:01:35;2.25;;;1.25;;
1829;SDS011;914;48.118;11.600;2022-07-29T07:04:06;1.38;;;1.17;;
1829;SDS011;914;48.118;11.600;2022-07-29T07:06:33;1.52;;;1.33;;
1829;SDS011;914;48.118;11.600;2022-07-29T07:08:59;2.28;;;1.33;;
1829;SDS011;914;48.118;11.600;2022-07-29T07:11:25;1.55;;;1.45;;
1829;SDS011;914;48.118;11.600;2022-07-29T07:13:51;1.67;;;1.58;;
1829;SDS011;914;48.118;11.600;2022-07-29T07:16:17;1.48;;;1.38;;
1829;SDS011;914;48.118;11.600;2022-07-29T07:18:42;1.63;;;1.42;;
1829;SDS011;914;48.118;11.600;2022-07-29T07:21:10;1.42;;;1.33;;
1829;SDS011;914;48.118;11.600;2022-07-29T07:23:36;2.47;;;1.10;;
1829;SDS011;914;48.118;11.600;2022-07-29T07:26:02;1.30;;;1.20;;
1829;SDS011;914;48.118;11.600;2022-07-29T07:28:28;1.52;;;1.42;;
1829;SDS011;914;48.118;11.600;2022-07-29T07:30:54;1.88;;;1.30;;
1829;SDS011;914;48.118;11.600;2022-07-29T07:33:19;1.25;;;1.20;;
1829;SDS011;914;48.118;11.600;2022-07-29T07:35:45;2.00;;;1.38;;
1829;SDS011;914;48.118;11.600;2022-07-29T07:38:11;1.40;;;1.30;;
1829;SDS011;914;48.118;11.600;2022-07-29T07:40:37;1.85;;;1.48;;
1829;SDS011;914;48.118;11.600;2022-07-29T07:43:03;1.35;;;1.30;;
1829;SDS011;914;48.118;11.600;2022-07-29T07:45:28;1.38;;;1.27;;
1829;SDS011;914;48.118;11.600;2022-07-29T07:47:54;1.77;;;1.30;;
1829;SDS011;914;48.118;11.600;2022-07-29T07:50:20;1.40;;;1.30;;
1829;SDS011;914;48.118;11.600;2022-07-29T07:52:49;1.70;;;1.60;;
1829;SDS011;914;48.118;11.600;2022-07-29T07:55:16;1.38;;;1.33;;
1829;SDS011;914;48.118;11.600;2022-07-29T07:57:42;1.20;;;1.20;;
1829;SDS011;914;48.118;11.600;2022-07-29T08:00:09;3.13;;;1.40;;
1829;SDS011;914;48.118;11.600;2022-07-29T08:02:35;2.20;;;1.00;;
1829;SDS011;914;48.118;11.600;2022-07-29T08:05:01;4.15;;;1.20;;
1829;SDS011;914;48.118;11.600;2022-07-29T08:07:26;1.00;;;1.00;;
1829;SDS011;914;48.118;11.600;2022-07-29T08:09:52;1.77;;;1.40;;
1829;SDS011;914;48.118;11.600;2022-07-29T08:12:18;1.88;;;1.30;;
1829;SDS011;914;48.118;11.600;2022-07-29T08:14:43;1.92;;;1.23;;
1829;SDS011;914;48.118;11.600;2022-07-29T08:17:09;1.95;;;1.27;;
1829;SDS011;914;48.118;11.600;2022-07-29T08:19:35;5.57;;;1.40;;
1829;SDS011;914;48.118;11.600;2022-07-29T08:22:02;2.40;;;1.40;;
1829;SDS011;914;48.118;11.600;2022-07-29T08:24:27;1.90;;;1.23;;
1829;SDS011;914;48.118;11.600;2022-07-29T08:27:11;1.48;;;1.33;;
1829;SDS011;914;48.118;11.600;2022-07-29T08:29:38;3.03;;;1.27;;
1829;SDS011;914;48.118;11.600;2022-07-29T08:32:04;1.45;;;1.35;;
1829;SDS011;914;48.118;11.600;2022-07-29T08:34:30;1.40;;;1.35;;
1829;SDS011;914;48.118;11.600;2022-07-29T08:36:57;2.72;;;1.30;;
1829;SDS011;914;48.118;11.600;2022-07-29T08:39:23;1.38;;;1.20;;
1829;SDS011;914;48.118;11.600;2022-07-29T08:41:49;1.25;;;1.17;;
1829;SDS011;914;48.118;11.600;2022-07-29T08:44:16;2.60;;;1.38;;
1829;SDS011;914;48.118;11.600;2022-07-29T08:46:43;1.65;;;1.33;;
1829;SDS011;914;48.118;11.600;2022-07-29T08:49:08;1.40;;;1.30;;
1829;SDS011;914;48.118;11.600;2022-07-29T08:51:34;1.25;;;1.20;;
1829;SDS011;914;48.118;11.600;2022-07-29T08:54:02;2.30;;;1.60;;
1829;SDS011;914;48.118;11.600;2022-07-29T08:56:28;2.67;;;1.33;;
1829;SDS011;914;48.118;11.600;2022-07-29T08:58:55;1.88;;;1.52;;
1829;SDS011;914;48.118;11.600;2022-07-29T09:01:24;1.83;;;1.70;;
1829;SDS011;914;48.118;11.600;2022-07-29T09:03:55;2.47;;;1.63;;
1829;SDS011;914;48.118;11.600;2022-07-29T09:06:23;2.28;;;2.05;;
1829;SDS011;914;48.118;11.600;2022-07-29T09:08:52;1.98;;;1.88;;
1829;SDS011;914;48.118;11.600;2022-07-29T09:11:20;2.17;;;1.60;;
1829;SDS011;914;48.118;11.600;2022-07-29T09:13:46;1.60;;;1.50;;
1829;SDS011;914;48.118;11.600;2022-07-29T09:16:14;6.07;;;1.92;;
1829;SDS011;914;48.118;11.600;2022-07-29T09:18:40;1.63;;;1.45;;
1829;SDS011;914;48.118;11.600;2022-07-29T09:21:12;4.10;;;1.58;;
1829;SDS011;914;48.118;11.600;2022-07-29T09:24:14;3.03;;;1.65;;
1829;SDS011;914;48.118;11.600;2022-07-29T09:26:40;1.40;;;1.30;;
1829;SDS011;914;48.118;11.600;2022-07-29T09:29:11;2.00;;;1.50;;
1829;SDS011;914;48.118;11.600;2022-07-29T09:31:42;2.50;;;1.70;;
1829;SDS011;914;48.118;11.600;2022-07-29T09:34:13;2.13;;;1.58;;
1829;SDS011;914;48.118;11.600;2022-07-29T09:39:06;6.50;;;1.88;;
1829;SDS011;914;48.118;11.600;2022-07-29T09:41:45;3.72;;;2.15;;
1829;SDS011;914;48.118;11.600;2022-07-29T09:44:12;6.50;;;1.85;;
1829;SDS011;914;48.118;11.600;2022-07-29T09:46:38;6.10;;;2.03;;
1829;SDS011;914;48.118;11.600;2022-07-29T09:49:08;1.58;;;1.48;;
1829;SDS011;914;48.118;11.600;2022-07-29T09:51:34;4.75;;;1.80;;
1829;SDS011;914;48.118;11.600;2022-07-29T09:54:00;3.15;;;2.95;;
1829;SDS011;914;48.118;11.600;2022-07-29T09:56:38;5.85;;;2.17;;
1829;SDS011;914;48.118;11.600;2022-07-29T09:59:05;2.60;;;1.85;;
1829;SDS011;914;48.118;11.600;2022-07-29T10:01:31;2.47;;;2.00;;
1829;SDS011;914;48.118;11.600;2022-07-29T10:03:57;2.28;;;1.70;;
1829;SDS011;914;48.118;11.600;2022-07-29T10:06:23;4.00;;;1.83;;
1829;SDS011;914;48.118;11.600;2022-07-29T10:08:48;5.30;;;1.70;;
1829;SDS011;914;48.118;11.600;2022-07-29T10:11:16;3.30;;;1.70;;
1829;SDS011;914;48.118;11.600;2022-07-29T10:13:43;2.15;;;1.90;;
1829;SDS011;914;48.118;11.600;2022-07-29T10:16:10;3.63;;;1.92;;
1829;SDS011;914;48.118;11.600;2022-07-29T10:18:40;2.45;;;1.73;;
1829;SDS011;914;48.118;11.600;2022-07-29T10:21:06;1.83;;;1.45;;
1829;SDS011;914;48.118;11.600;2022-07-29T10:23:32;2.20;;;2.00;;
1829;SDS011;914;48.118;11.600;2022-07-29T10:25:59;2.78;;;2.30;;
1829;SDS011;914;48.118;11.600;2022-07-29T10:28:25;5.10;;;2.00;;
1829;SDS011;914;48.118;11.600;2022-07-29T10:30:51;1.92;;;1.83;;
1829;SDS011;914;48.118;11.600;2022-07-29T10:38:52;2.72;;;1.90;;
1829;SDS011;914;48.118;11.600;2022-07-29T10:44:19;5.22;;;2.08;;
1829;SDS011;914;48.118;11.600;2022-07-29T10:46:47;4.68;;;2.05;;
1829;SDS011;914;48.118;11.600;2022-07-29T10:49:15;5.95;;;1.75;;
1829;SDS011;914;48.118;11.600;2022-07-29T10:51:50;2.95;;;1.88;;
1829;SDS011;914;48.118;11.600;2022-07-29T10:54:40;4.82;;;2.15;;
1829;SDS011;914;48.118;11.600;2022-07-29T10:57:16;3.92;;;1.88;;
1829;SDS011;914;48.118;11.600;2022-07-29T10:59:50;4.00;;;1.98;;
1829;SDS011;914;48.118;11.600;2022-07-29T11:07:38;2.00;;;1.88;;
1829;SDS011;914;48.118;11.600;2022-07-29T11:10:24;1.77;;;1.67;;
1829;SDS011;914;48.118;11.600;2022-07-29T11:12:50;4.57;;;1.92;;
1829;SDS011;914;48.118;11.600;2022-07-29T11:15:17;5.65;;;2.20;;
1829;SDS011;914;48.118;11.600;2022-07-29T11:20:32;1.77;;;1.58;;
1829;SDS011;914;48.118;11.600;2022-07-29T11:23:20;1.95;;;1.77;;
1829;SDS011;914;48.118;11.600;2022-07-29T11:28:51;3.83;;;1.50;;
1829;SDS011;914;48.118;11.600;2022-07-29T11:31:19;2.50;;;2.13;;
1829;SDS011;914;48.118;11.600;2022-07-29T11:34:13;2.28;;;1.60;;
1829;SDS011;914;48.118;11.600;2022-07-29T11:39:39;3.28;;;1.77;;
1829;SDS011;914;48.118;11.600;2022-07-29T11:47:30;3.95;;;2.00;;
1829;SDS011;914;48.118;11.600;2022-07-29T11:49:57;3.13;;;1.95;;
1829;SDS011;914;48.118;11.600;2022-07-29T11:52:31;3.15;;;1.83;;
1829;SDS011;914;48.118;11.600;2022-07-29T11:55:08;3.67;;;1.83;;
1829;SDS011;914;48.118;11.600;2022-07-29T11:57:37;5.13;;;1.92;;
1829;SDS011;914;48.118;11.600;2022-07-29T12:00:10;2.90;;;1.80;;
1829;SDS011;914;48.118;11.600;2022-07-29T12:02:41;3.58;;;1.60;;
1829;SDS011;914;48.118;11.600;2022-07-29T12:05:08;3.75;;;1.67;;
1829;SDS011;914;48.118;11.600;2022-07-29T12:07:36;3.70;;;3.33;;
1829;SDS011;914;48.118;11.600;2022-07-29T12:10:03;3.42;;;1.98;;
1829;SDS011;914;48.118;11.600;2022-07-29T12:12:30;4.50;;;2.00;;
1829;SDS011;914;48.118;11.600;2022-07-29T12:14:56;2.08;;;1.88;;
1829;SDS011;914;48.118;11.600;2022-07-29T12:17:25;2.35;;;1.80;;
1829;SDS011;914;48.118;11.600;2022-07-29T12:19:52;3.22;;;1.75;;
1829;SDS011;914;48.118;11.600;2022-07-29T12:22:32;3.10;;;1.90;;
1829;SDS011;914;48.118;11.600;2022-07-29T12:25:03;5.82;;;1.70;;
1829;SDS011;914;48.118;11.600;2022-07-29T12:27:30;3.42;;;1.83;;
1829;SDS011;914;48.118;11.600;2022-07-29T12:34:59;1.90;;;1.70;;
1829;SDS011;914;48.118;11.600;2022-07-29T12:37:37;4.35;;;1.70;;
1829;SDS011;914;48.118;11.600;2022-07-29T12:40:04;2.38;;;1.77;;
1829;SDS011;914;48.118;11.600;2022-07-29T12:42:32;1.75;;;1.60;;
1829;SDS011;914;48.118;11.600;2022-07-29T12:44:58;2.70;;;1.70;;
1829;SDS011;914;48.118;11.600;2022-07-29T12:47:24;3.22;;;1.90;;
1829;SDS011;914;48.118;11.600;2022-07-29T12:49:50;4.25;;;2.20;;
1829;SDS011;914;48.118;11.600;2022-07-29T12:52:32;3.38;;;1.80;;
1829;SDS011;914;48.118;11.600;2022-07-29T12:54:59;4.65;;;2.08;;
1829;SDS011;914;48.118;11.600;2022-07-29T12:57:26;5.25;;;2.28;;
1829;SDS011;914;48.118;11.600;2022-07-29T13:00:06;2.35;;;1.95;;
1829;SDS011;914;48.118;11.600;2022-07-29T13:02:36;3.13;;;2.10;;
1829;SDS011;914;48.118;11.600;2022-07-29T13:05:02;2.17;;;1.88;;
1829;SDS011;914;48.118;11.600;2022-07-29T13:07:30;4.15;;;2.00;;
1829;SDS011;914;48.118;11.600;2022-07-29T13:10:09;3.15;;;1.90;;
1829;SDS011;914;48.118;11.600;2022-07-29T13:12:36;2.38;;;2.17;;
1829;SDS011;914;48.118;11.600;2022-07-29T13:15:15;2.70;;;1.70;;
1829;SDS011;914;48.118;11.600;2022-07-29T13:17:41;4.55;;;2.00;;
1829;SDS011;914;48.118;11.600;2022-07-29T13:20:11;2.80;;;1.88;;
1829;SDS011;914;48.118;11.600;2022-07-29T13:22:38;3.65;;;2.00;;
1829;SDS011;914;48.118;11.600;2022-07-29T13:25:05;3.05;;;2.22;;
1829;SDS011;914;48.118;11.600;2022-07-29T13:27:34;2.28;;;1.83;;
1829;SDS011;914;48.118;11.600;2022-07-29T13:30:03;5.40;;;2.03;;
1829;SDS011;914;48.118;11.600;2022-07-29T13:32:30;3.58;;;2.10;;
1829;SDS011;914;48.118;11.600;2022-07-29T13:34:59;3.38;;;1.90;;
1829;SDS011;914;48.118;11.600;2022-07-29T13:37:27;2.85;;;1.73;;
1829;SDS011;914;48.118;11.600;2022-07-29T13:39:54;3.53;;;1.88;;
1829;SDS011;914;48.118;11.600;2022-07-29T13:42:22;4.07;;;2.10;;
1829;SDS011;914;48.118;11.600;2022-07-29T13:44:48;4.25;;;2.00;;
1829;SDS011;914;48.118;11.600;2022-07-29T13:47:16;3.33;;;1.90;;
1829;SDS011;914;48.118;11.600;2022-07-29T13:49:42;7.03;;;2.10;;
1829;SDS011;914;48.118;11.600;2022-07-29T13:52:08;3.28;;;1.80;;
1829;SDS011;914;48.118;11.600;2022-07-29T13:54:34;2.25;;;2.05;;
1829;SDS011;914;48.118;11.600;2022-07-29T13:57:02;2.28;;;1.92;;
1829;SDS011;914;48.118;11.600;2022-07-29T13:59:31;3.88;;;2.05;;
1829;SDS011;914;48.118;11.600;2022-07-29T14:01:57;3.92;;;1.70;;
1829;SDS011;914;48.118;11.600;2022-07-29T14:04:23;4.63;;;1.98;;
1829;SDS011;914;48.118;11.600;2022-07-29T14:06:49;2.33;;;1.88;;
1829;SDS011;914;48.118;11.600;2022-07-29T14:09:15;4.00;;;2.00;;
1829;SDS011;914;48.118;11.600;2022-07-29T14:11:41;2.20;;;1.83;;
1829;SDS011;914;48.118;11.600;2022-07-29T14:14:06;3.72;;;1.88;;
1829;SDS011;914;48.118;11.600;2022-07-29T14:16:32;5.13;;;1.95;;
1829;SDS011;914;48.118;11.600;2022-07-29T14:18:58;2.45;;;2.00;;
1829;SDS011;914;48.118;11.600;2022-07-29T14:21:24;4.50;;;2.05;;
1829;SDS011;914;48.118;11.600;2022-07-29T14:23:50;4.35;;;2.00;;
1829;SDS011;914;48.118;11.600;2022-07-29T14:26:17;4.10;;;2.72;;
1829;SDS011;914;48.118;11.600;2022-07-29T14:28:42;2.47;;;1.98;;
1829;SDS011;914;48.118;11.600;2022-07-29T14:31:08;1.92;;;1.77;;
1829;SDS011;914;48.118;11.600;2022-07-29T14:33:34;2.63;;;1.70;;
1829;SDS011;914;48.118;11.600;2022-07-29T14:36:00;2.85;;;2.00;;
1829;SDS011;914;48.118;11.600;2022-07-29T14:38:25;4.57;;;2.00;;
1829;SDS011;914;48.118;11.600;2022-07-29T14:40:51;3.35;;;2.00;;
1829;SDS011;914;48.118;11.600;2022-07-29T14:43:19;9.75;;;1.95;;
1829;SDS011;914;48.118;11.600;2022-07-29T14:45:44;2.63;;;1.70;;
1829;SDS011;914;48.118;11.600;2022-07-29T14:48:10;3.20;;;1.80;;
1829;SDS011;914;48.118;11.600;2022-07-29T14:50:36;2.60;;;1.60;;
1829;SDS011;914;48.118;11.600;2022-07-29T14:53:02;2.35;;;1.80;;
1829;SDS011;914;48.118;11.600;2022-07-29T14:55:28;3.88;;;1.85;;
1829;SDS011;914;48.118;11.600;2022-07-29T14:57:54;5.82;;;2.00;;
1829;SDS011;914;48.118;11.600;2022-07-29T15:00:20;2.05;;;1.75;;
1829;SDS011;914;48.118;11.600;2022-07-29T15:02:46;1.85;;;1.70;;
1829;SDS011;914;48.118;11.600;2022-07-29T15:05:12;2.80;;;1.60;;
1829;SDS011;914;48.118;11.600;2022-07-29T15:07:39;1.55;;;1.45;;
1829;SDS011;914;48.118;11.600;2022-07-29T15:10:05;5.30;;;1.90;;
1829;SDS011;914;48.118;11.600;2022-07-29T15:12:31;2.90;;;2.13;;
1829;SDS011;914;48.118;11.600;2022-07-29T15:14:57;3.85;;;1.88;;
1829;SDS011;914;48.118;11.600;2022-07-29T15:17:23;2.60;;;1.77;;
1829;SDS011;914;48.118;11.600;2022-07-29T15:19:48;3.33;;;1.70;;
1829;SDS011;914;48.118;11.600;2022-07-29T15:22:14;5.15;;;1.80;;
1829;SDS011;914;48.118;11.600;2022-07-29T15:24:40;2.70;;;1.70;;
1829;SDS011;914;48.118;11.600;2022-07-29T15:27:06;3.45;;;2.10;;
1829;SDS011;914;48.118;11.600;2022-07-29T15:29:31;3.55;;;1.88;;
1829;SDS011;914;48.118;11.600;2022-07-29T15:31:57;1.83;;;1.73;;
1829;SDS011;914;48.118;11.600;2022-07-29T15:34:23;2.92;;;2.10;;
1829;SDS011;914;48.118;11.600;2022-07-29T15:36:52;4.10;;;1.63;;
1829;SDS011;914;48.118;11.600;2022-07-29T15:39:18;2.13;;;1.73;;
1829;SDS011;914;48.118;11.600;2022-07-29T15:41:45;4.80;;;1.77;;
1829;SDS011;914;48.118;11.600;2022-07-29T15:44:11;2.45;;;1.88;;
1829;SDS011;914;48.118;11.600;2022-07-29T15:46:37;2.30;;;1.70;;
1829;SDS011;914;48.118;11.600;2022-07-29T15:49:21;2.30;;;2.03;;
1829;SDS011;914;48.118;11.600;2022-07-29T15:51:46;2.75;;;1.80;;
1829;SDS011;914;48.118;11.600;2022-07-29T15:54:12;2.60;;;2.20;;
1829;SDS011;914;48.118;11.600;2022-07-29T15:56:38;2.72;;;2.35;;
1829;SDS011;914;48.118;11.600;2022-07-29T15:59:03;2.10;;;1.80;;
1829;SDS011;914;48.118;11.600;2022-07-29T16:01:29;4.75;;;1.95;;
1829;SDS011;914;48.118;11.600;2022-07-29T16:03:54;1.80;;;1.70;;
1829;SDS011;914;48.118;11.600;2022-07-29T16:06:21;2.50;;;1.92;;
1829;SDS011;914;48.118;11.600;2022-07-29T16:08:47;5.93;;;2.05;;